createdAt,value
2018-10-05T00:00:10.138Z,75.60
2018-10-05T00:02:40.190Z,75.40
2018-10-05T00:05:12.359Z,75.10
2018-10-05T00:07:41.918Z,75.20
2018-10-05T00:10:14.960Z,75.40
2018-10-05T00:12:44.139Z,75.30
2018-10-05T00:15:14.644Z,75.50
2018-10-05T00:17:44.929Z,74.80
2018-10-05T00:20:15.145Z,74.40
2018-10-05T00:22:44.152Z,74.50
2018-10-05T00:25:14.984Z,74.70
2018-10-05T00:27:45.982Z,74.60
2018-10-05T00:30:14.942Z,75.30
2018-10-05T00:32:45.578Z,75.20
2018-10-05T00:35:16.208Z,75.20
2018-10-05T00:37:47.690Z,75.00
2018-10-05T00:40:18.354Z,75.30
2018-10-05T00:42:49.464Z,74.70
2018-10-05T00:45:19.594Z,74.70
2018-10-05T00:47:50.299Z,74.50
2018-10-05T00:50:20.736Z,75.30
2018-10-05T00:52:49.989Z,75.50
2018-10-05T00:55:20.728Z,75.80
2018-10-05T00:57:50.730Z,76.10
2018-10-05T01:00:20.492Z,75.90
2018-10-05T01:02:52.546Z,76.30
2018-10-05T01:05:22.176Z,75.70
2018-10-05T01:07:52.592Z,76.60
2018-10-05T01:10:22.468Z,76.40
2018-10-05T01:12:51.748Z,76.20
2018-10-05T01:15:22.986Z,75.90
2018-10-05T01:17:55.049Z,75.50
2018-10-05T01:20:24.622Z,75.90
2018-10-05T01:22:54.893Z,75.60
2018-10-05T01:25:26.007Z,75.10
2018-10-05T01:27:55.757Z,75.20
2018-10-05T01:30:29.676Z,75.60
2018-10-05T01:33:00.347Z,74.60
2018-10-05T01:35:29.857Z,74.90
2018-10-05T01:38:00.407Z,75.80
2018-10-05T01:40:30.968Z,74.90
2018-10-05T01:43:01.379Z,75.50
2018-10-05T01:45:30.421Z,75.00
2018-10-05T01:48:00.970Z,75.50
2018-10-05T01:50:35.269Z,75.00
2018-10-05T01:53:05.040Z,75.50
2018-10-05T01:55:34.156Z,75.20
2018-10-05T01:58:04.436Z,75.00
2018-10-05T02:00:33.558Z,75.10
2018-10-05T02:03:03.652Z,75.10
2018-10-05T02:05:32.874Z,75.30
2018-10-05T02:08:02.536Z,75.40
2018-10-05T02:10:31.688Z,75.30
2018-10-05T02:13:00.949Z,75.70
2018-10-05T02:15:31.759Z,75.70
2018-10-05T02:18:03.622Z,75.40
2018-10-05T02:20:34.567Z,75.60
2018-10-05T02:23:04.837Z,75.30
2018-10-05T02:25:34.808Z,75.70
2018-10-05T02:28:04.550Z,75.40
2018-10-05T02:30:33.696Z,76.10
2018-10-05T02:33:06.152Z,75.90
2018-10-05T02:35:38.083Z,76.00
2018-10-05T02:38:07.346Z,75.30
2018-10-05T02:40:37.585Z,76.20
2018-10-05T02:43:07.995Z,75.90
2018-10-05T02:45:44.071Z,76.40
2018-10-05T02:48:13.128Z,76.90
2018-10-05T02:50:44.582Z,76.10
2018-10-05T02:53:16.739Z,76.20
2018-10-05T02:55:45.793Z,76.10
2018-10-05T02:58:15.445Z,75.70
2018-10-05T03:01:01.793Z,76.20
2018-10-05T03:03:34.008Z,75.90
2018-10-05T03:06:03.605Z,76.10
2018-10-05T03:08:35.838Z,76.10
2018-10-05T03:11:04.857Z,76.40
2018-10-05T03:13:34.839Z,76.40
2018-10-05T03:16:05.035Z,76.80
2018-10-05T03:18:36.343Z,76.50
2018-10-05T03:21:07.388Z,76.90
2018-10-05T03:23:36.513Z,76.80
2018-10-05T03:26:05.433Z,76.30
2018-10-05T03:28:36.791Z,76.00
2018-10-05T03:31:07.331Z,76.50
2018-10-05T03:33:38.304Z,76.10
2018-10-05T03:36:07.247Z,76.40
2018-10-05T03:38:37.175Z,76.60
2018-10-05T03:41:07.740Z,76.80
2018-10-05T03:43:38.339Z,76.60
2018-10-05T03:46:08.507Z,76.80
2018-10-05T03:48:39.171Z,76.60
2018-10-05T03:51:08.189Z,76.10
2018-10-05T03:53:38.553Z,76.30
2018-10-05T03:56:09.279Z,76.20
2018-10-05T03:58:42.305Z,76.50
2018-10-05T04:01:14.924Z,76.40
2018-10-05T04:03:45.900Z,76.90
2018-10-05T04:06:16.032Z,76.80
2018-10-05T04:08:46.884Z,77.20
2018-10-05T04:11:16.861Z,77.30
2018-10-05T04:13:45.898Z,77.40
2018-10-05T04:16:16.148Z,76.80
2018-10-05T04:18:48.409Z,77.20
2018-10-05T04:21:19.782Z,76.80
2018-10-05T04:23:56.545Z,77.30
2018-10-05T04:26:27.064Z,78.30
2018-10-05T04:28:55.957Z,78.10
2018-10-05T04:31:25.065Z,78.20
2018-10-05T04:33:54.555Z,78.40
2018-10-05T04:36:24.182Z,77.30
2018-10-05T04:38:54.965Z,77.70
2018-10-05T04:41:24.044Z,77.30
2018-10-05T04:43:53.413Z,76.60
2018-10-05T04:46:23.543Z,77.50
2018-10-05T04:48:53.148Z,77.00
2018-10-05T04:51:22.825Z,77.10
2018-10-05T04:53:54.628Z,77.90
2018-10-05T04:56:24.442Z,77.70
2018-10-05T04:58:54.733Z,77.90
2018-10-05T05:01:25.205Z,77.60
2018-10-05T05:03:54.861Z,77.90
2018-10-05T05:06:27.101Z,77.30
2018-10-05T05:08:56.028Z,77.80
2018-10-05T05:11:25.590Z,77.30
2018-10-05T05:13:54.683Z,77.50
2018-10-05T05:16:23.669Z,77.50
2018-10-05T05:18:56.621Z,78.00
2018-10-05T05:21:26.825Z,77.00
2018-10-05T05:23:56.991Z,77.50
2018-10-05T05:26:27.277Z,77.20
2018-10-05T05:28:56.838Z,77.00
2018-10-05T05:31:28.505Z,77.40
2018-10-05T05:33:58.294Z,76.90
2018-10-05T05:36:28.531Z,76.90
2018-10-05T05:38:57.635Z,76.90
2018-10-05T05:41:29.145Z,76.90
2018-10-05T05:44:00.398Z,76.90
2018-10-05T05:46:30.670Z,77.80
2018-10-05T05:49:00.304Z,78.20
2018-10-05T05:51:29.981Z,77.30
2018-10-05T05:53:59.665Z,77.90
2018-10-05T05:56:32.182Z,77.60
2018-10-05T05:59:05.677Z,77.70
2018-10-05T06:01:34.709Z,77.90
2018-10-05T06:04:03.951Z,77.90
2018-10-05T06:06:33.830Z,77.10
2018-10-05T06:09:05.210Z,77.10
2018-10-05T06:11:35.674Z,77.00
2018-10-05T06:14:04.852Z,76.90
2018-10-05T06:16:35.769Z,76.00
2018-10-05T06:19:05.714Z,76.60
2018-10-05T06:21:36.382Z,76.80
2018-10-05T06:24:05.410Z,77.20
2018-10-05T06:26:35.284Z,76.90
2018-10-05T06:29:05.457Z,77.20
2018-10-05T06:31:34.699Z,77.40
2018-10-05T06:34:05.884Z,77.90
2018-10-05T06:36:36.474Z,77.90
2018-10-05T06:39:09.598Z,77.50
2018-10-05T06:41:39.212Z,77.60
2018-10-05T06:44:09.908Z,77.40
2018-10-05T06:46:41.844Z,78.20
2018-10-05T06:49:11.557Z,78.80
2018-10-05T06:51:40.458Z,79.20
2018-10-05T06:54:10.402Z,80.00
2018-10-05T06:56:39.465Z,79.30
2018-10-05T06:59:09.854Z,80.00
2018-10-05T07:01:38.811Z,79.60
2018-10-05T07:04:08.780Z,79.60
2018-10-05T07:06:40.910Z,79.50
2018-10-05T07:09:12.032Z,80.10
2018-10-05T07:11:41.111Z,81.10
2018-10-05T07:14:10.694Z,81.20
2018-10-05T07:16:41.806Z,81.10
2018-10-05T07:19:12.633Z,81.00
2018-10-05T07:21:42.319Z,81.00
2018-10-05T07:24:12.315Z,81.40
2018-10-05T07:26:41.861Z,80.80
2018-10-05T07:29:12.068Z,81.20
2018-10-05T07:31:42.991Z,82.30
2018-10-05T07:34:12.486Z,82.70
2018-10-05T07:36:42.398Z,80.50
2018-10-05T07:41:45.523Z,81.60
2018-10-05T07:44:17.350Z,83.10
2018-10-05T07:46:47.210Z,83.10
2018-10-05T07:49:16.438Z,84.20
2018-10-05T07:51:47.432Z,83.80
2018-10-05T07:54:19.062Z,84.30
2018-10-05T07:56:49.044Z,84.20
2018-10-05T07:59:19.087Z,82.90
2018-10-05T08:01:53.544Z,81.70
2018-10-05T08:04:24.317Z,81.90
2018-10-05T08:06:54.857Z,82.10
2018-10-05T08:09:24.808Z,81.70
2018-10-05T08:11:57.788Z,82.90
2018-10-05T08:14:29.539Z,81.80
2018-10-05T08:17:00.776Z,82.10
2018-10-05T08:19:30.357Z,80.70
2018-10-05T08:21:59.333Z,79.40
2018-10-05T08:24:29.525Z,80.50
2018-10-05T08:26:59.904Z,80.10
2018-10-05T08:29:31.012Z,79.20
2018-10-05T08:32:02.280Z,78.80
2018-10-05T08:34:31.891Z,77.90
2018-10-05T08:37:00.836Z,78.30
2018-10-05T08:39:32.750Z,78.90
2018-10-05T08:42:05.532Z,78.00
2018-10-05T08:44:35.738Z,76.60
2018-10-05T08:47:10.501Z,76.60
2018-10-05T08:49:40.137Z,76.40
2018-10-05T08:52:12.030Z,75.20
2018-10-05T08:54:43.169Z,75.00
2018-10-05T08:57:12.869Z,75.50
2018-10-05T08:59:44.559Z,73.90
2018-10-05T09:02:13.703Z,72.70
2018-10-05T09:04:43.613Z,72.80
2018-10-05T09:07:14.719Z,73.10
2018-10-05T09:09:44.295Z,71.00
2018-10-05T09:12:14.159Z,70.30
2018-10-05T09:14:43.465Z,68.90
2018-10-05T09:17:13.331Z,67.50
2018-10-05T09:19:43.219Z,65.40
2018-10-05T09:22:13.497Z,66.50
2018-10-05T09:24:45.080Z,66.60
2018-10-05T09:27:16.652Z,65.80
2018-10-05T09:29:46.255Z,64.60
2018-10-05T09:32:16.245Z,65.60
2018-10-05T09:34:47.445Z,63.60
2018-10-05T09:37:18.043Z,61.70
2018-10-05T09:39:48.125Z,60.90
2018-10-05T09:42:17.843Z,61.90
2018-10-05T09:44:46.861Z,61.80
2018-10-05T09:47:16.719Z,61.70
2018-10-05T09:49:45.700Z,56.60
2018-10-05T09:52:16.009Z,60.20
2018-10-05T09:54:45.140Z,60.20
2018-10-05T09:57:14.671Z,59.60
2018-10-05T09:59:43.610Z,55.90
2018-10-05T10:02:14.255Z,56.70
2018-10-05T10:04:45.115Z,53.60
2018-10-05T10:07:15.153Z,53.60
2018-10-05T10:09:46.981Z,55.40
2018-10-05T10:12:16.558Z,49.60
2018-10-05T10:14:46.253Z,54.10
2018-10-05T10:17:16.503Z,53.70
2018-10-05T10:19:45.354Z,51.00
2018-10-05T10:22:16.698Z,49.30
2018-10-05T10:24:46.629Z,46.40
2018-10-05T10:27:15.635Z,46.40
2018-10-05T10:29:52.707Z,46.30
2018-10-05T10:32:23.285Z,48.20
2018-10-05T10:34:53.695Z,46.70
2018-10-05T10:37:22.633Z,41.30
2018-10-05T10:39:54.744Z,43.40
2018-10-05T10:42:31.246Z,44.60
2018-10-05T10:45:00.262Z,41.40
2018-10-05T10:47:31.537Z,42.40
2018-10-05T10:50:01.365Z,43.60
2018-10-05T10:52:30.501Z,41.10
2018-10-05T10:55:00.053Z,42.60
2018-10-05T10:57:28.991Z,41.20
2018-10-05T10:59:58.675Z,38.20
2018-10-05T11:02:28.480Z,39.70
2018-10-05T11:04:59.937Z,40.70
2018-10-05T11:07:28.860Z,41.00
2018-10-05T11:09:58.071Z,37.20
2018-10-05T11:12:29.116Z,41.20
2018-10-05T11:14:59.836Z,38.10
2018-10-05T11:17:29.114Z,39.20
2018-10-05T11:19:59.774Z,39.10
2018-10-05T11:22:28.750Z,40.00
2018-10-05T11:24:58.628Z,37.80
2018-10-05T11:27:28.584Z,38.90
2018-10-05T11:29:58.868Z,39.70
2018-10-05T11:32:29.446Z,39.20
2018-10-05T11:35:00.227Z,37.00
2018-10-05T11:37:30.466Z,38.80
2018-10-05T11:40:00.612Z,37.90
2018-10-05T11:42:30.475Z,35.10
2018-10-05T11:45:00.212Z,39.20
2018-10-05T11:47:33.276Z,37.70
2018-10-05T11:50:02.215Z,38.20
2018-10-05T11:52:32.020Z,32.80
2018-10-05T11:55:00.924Z,36.70
2018-10-05T11:57:30.061Z,37.90
2018-10-05T11:59:59.307Z,35.40
2018-10-05T12:02:29.091Z,37.20
2018-10-05T12:04:59.782Z,34.10
2018-10-05T12:07:28.744Z,36.30
2018-10-05T12:09:59.214Z,37.80
2018-10-05T12:12:28.801Z,35.10
2018-10-05T12:14:58.671Z,36.30
2018-10-05T12:17:27.685Z,35.40
2018-10-05T12:19:57.436Z,33.90
2018-10-05T12:22:26.459Z,32.70
2018-10-05T12:24:56.429Z,30.80
2018-10-05T12:27:25.673Z,32.00
2018-10-05T12:29:54.627Z,33.00
2018-10-05T12:32:23.629Z,36.00
2018-10-05T12:34:52.670Z,34.80
2018-10-05T12:37:26.973Z,31.20
2018-10-05T12:39:57.403Z,30.80
2018-10-05T12:42:27.365Z,31.70
2018-10-05T12:44:56.384Z,30.60
2018-10-05T12:47:26.178Z,31.10
2018-10-05T12:49:56.357Z,31.20
2018-10-05T12:52:26.194Z,31.40
2018-10-05T12:54:55.686Z,31.50
2018-10-05T12:57:24.720Z,30.40
2018-10-05T12:59:54.596Z,31.30
2018-10-05T13:02:23.461Z,31.50
2018-10-05T13:04:53.893Z,31.70
2018-10-05T13:07:22.960Z,28.10
2018-10-05T13:09:52.407Z,30.90
2018-10-05T13:12:21.364Z,29.10
2018-10-05T13:14:50.791Z,29.50
2018-10-05T13:17:21.575Z,28.80
2018-10-05T13:19:52.296Z,27.40
2018-10-05T13:22:22.341Z,28.00
2018-10-05T13:29:53.591Z,28.50
2018-10-05T13:32:22.643Z,29.50
2018-10-05T13:34:55.642Z,30.10
2018-10-05T13:37:24.798Z,30.00
2018-10-05T13:39:55.144Z,27.50
2018-10-05T13:42:24.253Z,29.20
2018-10-05T13:44:53.197Z,29.00
2018-10-05T13:47:22.873Z,29.90
2018-10-05T13:49:54.106Z,29.80
2018-10-05T13:52:24.693Z,29.20
2018-10-05T13:54:57.401Z,28.70
2018-10-05T14:00:08.274Z,28.00
2018-10-05T14:02:38.042Z,28.00
2018-10-05T14:05:07.070Z,28.80
2018-10-05T14:07:37.804Z,27.60
2018-10-05T14:10:07.145Z,28.30
2018-10-05T14:12:38.263Z,28.70
2018-10-05T14:15:10.140Z,27.60
2018-10-05T14:17:39.264Z,28.70
2018-10-05T14:20:08.384Z,27.20
2018-10-05T14:22:37.209Z,25.80
2018-10-05T14:25:06.419Z,26.90
2018-10-05T14:27:36.387Z,26.30
2018-10-05T14:30:06.636Z,26.50
2018-10-05T14:32:35.542Z,27.50
2018-10-05T14:35:04.345Z,26.30
2018-10-05T14:37:34.444Z,25.70
2018-10-05T14:40:04.476Z,26.00
2018-10-05T14:42:34.938Z,25.40
2018-10-05T14:45:05.111Z,25.30
2018-10-05T14:47:33.932Z,25.30
2018-10-05T14:50:04.120Z,26.40
2018-10-05T14:52:33.058Z,25.40
2018-10-05T14:55:02.153Z,25.80
2018-10-05T14:57:32.020Z,25.70
2018-10-05T15:00:00.778Z,27.40
2018-10-05T15:02:31.419Z,26.60
2018-10-05T15:05:00.919Z,25.40
2018-10-05T15:07:29.914Z,26.40
2018-10-05T15:09:59.533Z,26.30
2018-10-05T15:12:28.610Z,26.90
2018-10-05T15:14:59.401Z,27.30
2018-10-05T15:17:28.447Z,27.40
2018-10-05T15:19:58.163Z,28.10
2018-10-05T15:22:27.129Z,28.00
2018-10-05T15:24:56.114Z,27.00
2018-10-05T15:27:27.192Z,29.00
2018-10-05T15:29:56.174Z,30.60
2018-10-05T15:32:26.330Z,30.50
2018-10-05T15:34:55.496Z,30.30
2018-10-05T15:37:26.088Z,31.30
2018-10-05T15:39:56.181Z,29.90
2018-10-05T15:42:25.141Z,30.50
2018-10-05T15:44:54.358Z,31.90
2018-10-05T15:47:24.238Z,31.20
2018-10-05T15:49:53.178Z,31.60
2018-10-05T15:52:23.279Z,32.40
2018-10-05T15:54:52.894Z,33.00
2018-10-05T15:57:21.844Z,33.10
2018-10-05T15:59:51.613Z,34.20
2018-10-05T16:02:20.529Z,34.60
2018-10-05T16:04:50.812Z,34.70
2018-10-05T16:07:21.788Z,34.40
2018-10-05T16:09:50.830Z,34.90
2018-10-05T16:12:21.507Z,35.90
2018-10-05T16:14:53.466Z,36.80
2018-10-05T16:17:23.065Z,37.60
2018-10-05T16:19:52.082Z,37.80
2018-10-05T16:22:24.648Z,37.20
2018-10-05T16:24:54.922Z,37.40
2018-10-05T16:27:25.270Z,39.90
2018-10-05T16:29:55.139Z,39.00
2018-10-05T16:32:26.359Z,39.80
2018-10-05T16:34:56.049Z,40.40
2018-10-05T16:37:25.221Z,40.70
2018-10-05T16:39:55.187Z,40.90
2018-10-05T16:42:25.898Z,41.50
2018-10-05T16:44:54.994Z,42.10
2018-10-05T16:47:24.034Z,42.00
2018-10-05T16:49:54.823Z,44.10
2018-10-05T16:52:23.911Z,43.60
2018-10-05T16:54:52.811Z,44.20
2018-10-05T16:59:56.200Z,44.50
2018-10-05T17:02:25.026Z,46.30
2018-10-05T17:04:53.995Z,46.90
2018-10-05T17:07:22.958Z,46.30
2018-10-05T17:09:53.457Z,46.80
2018-10-05T17:12:23.251Z,47.80
2018-10-05T17:14:52.172Z,48.60
2018-10-05T17:17:21.009Z,48.10
2018-10-05T17:19:49.816Z,48.40
2018-10-05T17:22:18.884Z,49.70
2018-10-05T17:24:48.269Z,49.10
2018-10-05T17:27:17.025Z,50.10
2018-10-05T17:29:45.854Z,50.30
2018-10-05T17:32:15.543Z,51.30
2018-10-05T17:34:44.412Z,51.30
2018-10-05T17:37:13.593Z,52.30
2018-10-05T17:39:43.747Z,52.30
2018-10-05T17:42:12.593Z,54.20
2018-10-05T17:44:41.216Z,53.80
2018-10-05T17:47:10.208Z,53.70
2018-10-05T17:49:39.557Z,54.70
2018-10-05T17:52:09.476Z,53.30
2018-10-05T17:54:38.749Z,54.00
2018-10-05T17:57:07.759Z,55.10
2018-10-05T17:59:36.671Z,56.10
2018-10-05T18:02:06.428Z,56.10
2018-10-05T18:04:36.326Z,55.80
2018-10-05T18:07:05.393Z,57.30
2018-10-05T18:09:34.195Z,57.00
2018-10-05T18:12:03.970Z,58.70
2018-10-05T18:14:32.862Z,59.20
2018-10-05T18:17:01.861Z,59.50
2018-10-05T18:22:03.809Z,58.80
2018-10-05T18:24:32.769Z,59.90
2018-10-05T18:27:01.720Z,60.50
2018-10-05T18:29:30.571Z,59.80
2018-10-05T18:32:00.278Z,60.80
2018-10-05T18:34:29.579Z,60.90
2018-10-05T18:36:58.847Z,61.00
2018-10-05T18:39:27.609Z,60.30
2018-10-05T18:41:57.386Z,60.60
2018-10-05T18:44:26.076Z,60.70
2018-10-05T18:46:55.542Z,61.00
2018-10-05T18:49:25.978Z,61.30
2018-10-05T18:51:54.761Z,61.10
2018-10-05T18:54:23.649Z,61.20
2018-10-05T18:57:09.516Z,61.80
2018-10-05T18:59:38.654Z,62.80
2018-10-05T19:02:08.113Z,62.50
2018-10-05T19:04:37.118Z,62.50
2018-10-05T19:07:06.218Z,62.40
2018-10-05T19:09:35.134Z,62.80
2018-10-05T19:12:04.389Z,62.60
2018-10-05T19:14:34.476Z,63.00
2018-10-05T19:17:03.346Z,63.60
2018-10-05T19:19:33.244Z,63.80
2018-10-05T19:22:02.032Z,64.10
2018-10-05T19:24:31.078Z,64.90
2018-10-05T19:27:02.227Z,65.20
2018-10-05T19:29:31.629Z,64.80
2018-10-05T19:32:00.622Z,65.00
2018-10-05T19:34:29.618Z,64.40
2018-10-05T19:36:59.108Z,65.10
2018-10-05T19:39:28.572Z,65.30
2018-10-05T19:41:57.510Z,66.00
2018-10-05T19:44:26.196Z,65.90
2018-10-05T19:47:02.223Z,66.00
2018-10-05T19:49:31.102Z,66.40
2018-10-05T19:52:00.599Z,66.40
2018-10-05T19:54:29.360Z,66.50
2018-10-05T19:56:58.045Z,66.50
2018-10-05T19:59:27.312Z,66.20
2018-10-05T20:01:56.237Z,66.90
2018-10-05T20:04:25.170Z,66.10
2018-10-05T20:06:56.867Z,66.20
2018-10-05T20:09:26.831Z,66.30
2018-10-05T20:11:55.595Z,66.60
2018-10-05T20:14:25.303Z,68.00
2018-10-05T20:16:54.102Z,67.00
2018-10-05T20:19:22.960Z,68.00
2018-10-05T20:21:53.467Z,67.70
2018-10-05T20:24:23.297Z,67.80
2018-10-05T20:26:52.077Z,68.00
2018-10-05T20:29:21.016Z,69.10
2018-10-05T20:31:50.658Z,69.20
2018-10-05T20:34:20.139Z,69.20
2018-10-05T20:36:50.057Z,69.30
2018-10-05T20:39:19.402Z,69.70
2018-10-05T20:41:48.396Z,69.60
2018-10-05T20:44:17.020Z,69.10
2018-10-05T20:46:45.735Z,68.40
2018-10-05T20:49:18.954Z,68.60
2018-10-05T20:51:47.591Z,68.30
2018-10-05T20:54:16.304Z,68.40
2018-10-05T20:56:45.978Z,68.40
2018-10-05T20:59:16.132Z,68.60
2018-10-05T21:01:44.883Z,68.90
2018-10-05T21:04:13.743Z,68.30
2018-10-05T21:06:42.563Z,68.50
2018-10-05T21:09:11.974Z,69.10
2018-10-05T21:11:41.078Z,68.90
2018-10-05T21:14:09.865Z,69.50
2018-10-05T21:16:39.850Z,69.20
2018-10-05T21:19:09.628Z,69.70
2018-10-05T21:21:38.359Z,69.50
2018-10-05T21:24:07.186Z,69.40
2018-10-05T21:26:36.013Z,69.40
2018-10-05T21:29:05.374Z,70.20
2018-10-05T21:31:34.133Z,70.20
2018-10-05T21:34:03.041Z,71.00
2018-10-05T21:36:32.912Z,70.20
2018-10-05T21:39:02.207Z,70.00
2018-10-05T21:41:31.356Z,70.10
2018-10-05T21:44:00.459Z,70.20
2018-10-05T21:46:29.397Z,70.70
2018-10-05T21:48:58.171Z,70.20
2018-10-05T21:51:27.107Z,70.20
2018-10-05T21:53:56.120Z,71.60
2018-10-05T21:56:25.924Z,72.20
2018-10-05T21:58:55.578Z,72.00
2018-10-05T22:01:24.559Z,71.70
2018-10-05T22:03:54.153Z,71.70
2018-10-05T22:06:22.895Z,72.70
2018-10-05T22:08:51.911Z,72.90
2018-10-05T22:11:20.737Z,73.40
2018-10-05T22:13:49.627Z,73.00
2018-10-05T22:16:18.620Z,73.60
2018-10-05T22:18:47.399Z,74.00
2018-10-05T22:21:16.278Z,73.70
2018-10-05T22:23:45.368Z,74.10
2018-10-05T22:26:14.218Z,73.90
2018-10-05T22:28:43.155Z,74.10
2018-10-05T22:31:12.711Z,74.30
2018-10-05T22:33:42.331Z,73.80
2018-10-05T22:36:11.137Z,74.00
2018-10-05T22:38:39.950Z,73.10
2018-10-05T22:41:08.783Z,72.90
2018-10-05T22:43:37.790Z,72.40
2018-10-05T22:46:06.611Z,73.00
2018-10-05T22:48:35.433Z,73.30
2018-10-05T22:51:04.526Z,73.00
2018-10-05T22:53:34.219Z,72.30
2018-10-05T22:56:03.099Z,73.30
2018-10-05T22:58:31.869Z,73.60
2018-10-05T23:01:00.790Z,73.50
2018-10-05T23:03:30.269Z,73.50
2018-10-05T23:05:59.038Z,73.30
2018-10-05T23:08:28.110Z,73.40
2018-10-05T23:10:57.533Z,73.30
2018-10-05T23:13:27.456Z,73.70
2018-10-05T23:15:56.662Z,73.50
2018-10-05T23:18:25.579Z,73.70
2018-10-05T23:20:54.437Z,72.80
2018-10-05T23:23:23.175Z,73.50
2018-10-05T23:25:51.979Z,73.00
2018-10-05T23:28:21.147Z,73.90
2018-10-05T23:30:50.167Z,73.50
2018-10-05T23:33:19.304Z,74.00
2018-10-05T23:35:48.122Z,73.70
2018-10-05T23:38:17.145Z,74.20
2018-10-05T23:40:45.913Z,73.90
2018-10-05T23:43:14.744Z,74.00
2018-10-05T23:45:43.559Z,73.90
2018-10-05T23:48:12.335Z,74.00
2018-10-05T23:50:41.244Z,73.60
2018-10-05T23:53:10.913Z,74.40
2018-10-05T23:55:40.599Z,74.60
2018-10-05T23:58:09.523Z,74.40
